Detall de PIREP

Printer-friendly versionPDF version

[2012/10/13 13:28:00]
Flight IATA:CT0001
Pilot Number:012
Company ICAO:CAT
Aircraft Type:A320/E
PAX:150
Departing Airport: LEGE
Destination Airport: LEDA
Alternate Airport:LEBL
Online: VATSIM
Route:MAMUK H110 REBUL
Flight Level:F170
No Slew and time accel
No pause
Crash detect
Detect pilot in Cockpit between each 30 and 45 minutes
13:28 Zero fuel Weight: 137359 Lbs, Fuel Weight: 14750 Lbs
13:28 VATSIM:LEGE 131300Z 16006KT 140V200 9999 BKN031 19/11 Q1013
13:28 VATSIM:LEDA 121830Z 19003KT 9999 FEW040 17/12 Q1015
13:28 VOICE CATALONIAN
13:29 Parking Brakes off
13:33 Take-off
13:33 Take off Weight: 151328 Lbs
13:33 Wind: 173º @ 006 Knots Heading: 196º
13:33 POS N41º 53´ 33´´ E002º 45´ 24´´
13:33 Gear Up: 186 Knots
13:33 Flaps:2 at 186 Knots
13:33 Flaps:1 at 200 Knots
13:33 Flaps:0 at 214 Knots
13:48 Wind:288º@012 Knots Heading: 260º Ground Speed: 269 Knots Altitude 9137 ft
13:53 Flaps:1 at 215 Knots
13:56 Flaps:3 at 197 Knots
13:56 Gear Down: 197 Knots
13:56 Flaps:4 at 170 Knots
13:56 Flaps:5 at 162 Knots
13:58 TouchDown:Rate -89 ft/min Speed: 141 Knots
13:59 VATSIM:LEDA 121830Z 19003KT 9999 FEW040 17/12 Q1015
13:59 Land
13:59 Wind:247º@010 Knots
13:59 Heading: 314º
13:59 Flight Duration: 00:26
13:59 Landing Weight: 147352 Lbs
13:59 POS N41º 43´ 46´´ E000º 31´ 59´´
14:01 Parking brakes on
14:01 Block to Block Duration: 00:32
14:01 Final Fuel: 9720 Lbls
14:01 Spent Fuel: 5030 Lbls
14:01 Flight Length: 118 NM
14:01 TOD Land Length: 118 NM

Exportar CSV

Powered by Drupal - Modified by Danger4k